Aviation Digital Data Service (ADDS)

Output produced by METARs form (1951 UTC 06 December 2016)
found at http://aviationweather.gov/adds/metars/
 
KRUT 061735Z 0618/0718 00000KT P6SM SCT015 
     TEMPO 0618/0620 BKN015 
     FM070300 12005KT P6SM VCSH OVC070 
     FM070700 13006KT 1SM -SN BR OVC020 
     FM071400 14006KT 5SM BR VCSH OVC015